Terminal Aerodrome Forecast
Issued by NWS Sterling, VA

Home | Current Version | Previous Version | Text Only | Print | Product List | Glossary On
Versions: 1 2 3 4 5 6 7 8 9 10 11 12 13 14 15 16 17 18 19 20 21
000
FTUS41 KLWX 260900 AAA
TAFBWI
TAF AMD
KBWI 260902Z 2609/2712 26009KT P6SM FEW060
     FM261400 30014G22KT P6SM FEW250
     FM270000 29008KT P6SM SKC
     FM271100 28004KT P6SM FEW250=

USA.gov is the U.S. government's official web portal to all federal, state and local government web resources and services.